sensor_id;sensor_type;location;lat;lon;timestamp;P1;durP1;ratioP1;P2;durP2;ratioP2
54332;SDS011;40230;41.860;21.940;2022-12-18T00:00:47;10.32;;;7.72;;
54332;SDS011;40230;41.860;21.940;2022-12-18T00:03:16;12.18;;;8.55;;
54332;SDS011;40230;41.860;21.940;2022-12-18T00:05:46;11.35;;;8.13;;
54332;SDS011;40230;41.860;21.940;2022-12-18T00:08:12;11.23;;;7.97;;
54332;SDS011;40230;41.860;21.940;2022-12-18T00:10:38;8.10;;;7.20;;
54332;SDS011;40230;41.860;21.940;2022-12-18T00:13:04;10.15;;;7.55;;
54332;SDS011;40230;41.860;21.940;2022-12-18T00:15:32;9.32;;;8.07;;
54332;SDS011;40230;41.860;21.940;2022-12-18T00:17:58;11.43;;;8.15;;
54332;SDS011;40230;41.860;21.940;2022-12-18T00:20:24;11.23;;;8.73;;
54332;SDS011;40230;41.860;21.940;2022-12-18T00:22:51;12.05;;;7.88;;
54332;SDS011;40230;41.860;21.940;2022-12-18T00:25:17;10.15;;;7.68;;
54332;SDS011;40230;41.860;21.940;2022-12-18T00:27:43;9.55;;;7.85;;
54332;SDS011;40230;41.860;21.940;2022-12-18T00:30:10;13.43;;;8.43;;
54332;SDS011;40230;41.860;21.940;2022-12-18T00:32:36;10.75;;;8.20;;
54332;SDS011;40230;41.860;21.940;2022-12-18T00:35:03;10.77;;;7.68;;
54332;SDS011;40230;41.860;21.940;2022-12-18T00:37:29;10.52;;;8.60;;
54332;SDS011;40230;41.860;21.940;2022-12-18T00:39:55;11.18;;;8.20;;
54332;SDS011;40230;41.860;21.940;2022-12-18T00:42:21;11.77;;;7.70;;
54332;SDS011;40230;41.860;21.940;2022-12-18T00:45:05;8.98;;;7.25;;
54332;SDS011;40230;41.860;21.940;2022-12-18T00:47:32;10.13;;;7.10;;
54332;SDS011;40230;41.860;21.940;2022-12-18T00:49:58;12.27;;;8.43;;
54332;SDS011;40230;41.860;21.940;2022-12-18T00:52:24;11.85;;;7.60;;
54332;SDS011;40230;41.860;21.940;2022-12-18T00:54:50;10.15;;;7.18;;
54332;SDS011;40230;41.860;21.940;2022-12-18T00:57:16;8.43;;;6.47;;
54332;SDS011;40230;41.860;21.940;2022-12-18T00:59:42;11.02;;;6.93;;
54332;SDS011;40230;41.860;21.940;2022-12-18T01:02:08;8.77;;;6.55;;
54332;SDS011;40230;41.860;21.940;2022-12-18T01:04:34;9.45;;;6.45;;
54332;SDS011;40230;41.860;21.940;2022-12-18T01:07:00;9.95;;;6.65;;
54332;SDS011;40230;41.860;21.940;2022-12-18T01:09:26;7.50;;;5.70;;
54332;SDS011;40230;41.860;21.940;2022-12-18T01:11:52;8.73;;;5.90;;
54332;SDS011;40230;41.860;21.940;2022-12-18T01:14:18;9.75;;;6.90;;
54332;SDS011;40230;41.860;21.940;2022-12-18T01:16:44;9.52;;;6.00;;
54332;SDS011;40230;41.860;21.940;2022-12-18T01:19:11;8.80;;;6.50;;
54332;SDS011;40230;41.860;21.940;2022-12-18T01:21:37;8.60;;;6.55;;
54332;SDS011;40230;41.860;21.940;2022-12-18T01:24:03;9.27;;;7.25;;
54332;SDS011;40230;41.860;21.940;2022-12-18T01:26:29;9.35;;;6.80;;
54332;SDS011;40230;41.860;21.940;2022-12-18T01:28:56;8.30;;;5.95;;
54332;SDS011;40230;41.860;21.940;2022-12-18T01:31:25;8.50;;;5.65;;
54332;SDS011;40230;41.860;21.940;2022-12-18T01:33:52;9.18;;;6.32;;
54332;SDS011;40230;41.860;21.940;2022-12-18T01:36:22;8.68;;;5.93;;
54332;SDS011;40230;41.860;21.940;2022-12-18T01:38:49;9.30;;;5.90;;
54332;SDS011;40230;41.860;21.940;2022-12-18T01:41:16;8.40;;;6.32;;
54332;SDS011;40230;41.860;21.940;2022-12-18T01:43:44;7.72;;;6.40;;
54332;SDS011;40230;41.860;21.940;2022-12-18T01:46:10;7.50;;;5.38;;
54332;SDS011;40230;41.860;21.940;2022-12-18T01:48:36;11.30;;;7.88;;
54332;SDS011;40230;41.860;21.940;2022-12-18T01:51:03;9.05;;;6.53;;
54332;SDS011;40230;41.860;21.940;2022-12-18T01:53:30;7.72;;;6.13;;
54332;SDS011;40230;41.860;21.940;2022-12-18T01:55:56;7.72;;;6.32;;
54332;SDS011;40230;41.860;21.940;2022-12-18T01:58:35;8.25;;;6.72;;
54332;SDS011;40230;41.860;21.940;2022-12-18T02:01:03;9.05;;;6.32;;
54332;SDS011;40230;41.860;21.940;2022-12-18T02:03:29;8.90;;;5.82;;
54332;SDS011;40230;41.860;21.940;2022-12-18T02:06:15;6.38;;;4.82;;
54332;SDS011;40230;41.860;21.940;2022-12-18T02:08:51;8.75;;;5.47;;
54332;SDS011;40230;41.860;21.940;2022-12-18T02:11:23;7.88;;;4.93;;
54332;SDS011;40230;41.860;21.940;2022-12-18T02:13:53;7.60;;;5.47;;
54332;SDS011;40230;41.860;21.940;2022-12-18T02:18:47;7.25;;;5.78;;
54332;SDS011;40230;41.860;21.940;2022-12-18T02:26:36;8.02;;;5.53;;
54332;SDS011;40230;41.860;21.940;2022-12-18T02:29:06;6.05;;;4.60;;
54332;SDS011;40230;41.860;21.940;2022-12-18T02:31:45;7.05;;;5.30;;
54332;SDS011;40230;41.860;21.940;2022-12-18T02:34:13;7.78;;;5.15;;
54332;SDS011;40230;41.860;21.940;2022-12-18T02:36:40;11.25;;;5.63;;
54332;SDS011;40230;41.860;21.940;2022-12-18T02:39:07;7.70;;;5.57;;
54332;SDS011;40230;41.860;21.940;2022-12-18T02:41:34;6.10;;;4.60;;
54332;SDS011;40230;41.860;21.940;2022-12-18T02:44:02;7.10;;;5.38;;
54332;SDS011;40230;41.860;21.940;2022-12-18T02:46:33;6.68;;;4.05;;
54332;SDS011;40230;41.860;21.940;2022-12-18T02:54:37;5.70;;;4.32;;
54332;SDS011;40230;41.860;21.940;2022-12-18T02:57:03;6.38;;;4.97;;
54332;SDS011;40230;41.860;21.940;2022-12-18T02:59:56;7.57;;;5.10;;
54332;SDS011;40230;41.860;21.940;2022-12-18T03:02:30;7.25;;;4.82;;
54332;SDS011;40230;41.860;21.940;2022-12-18T03:10:11;6.68;;;4.68;;
54332;SDS011;40230;41.860;21.940;2022-12-18T03:12:40;6.55;;;5.68;;
54332;SDS011;40230;41.860;21.940;2022-12-18T03:15:09;5.82;;;4.03;;
54332;SDS011;40230;41.860;21.940;2022-12-18T03:17:38;5.70;;;4.50;;
54332;SDS011;40230;41.860;21.940;2022-12-18T03:20:07;5.72;;;4.30;;
54332;SDS011;40230;41.860;21.940;2022-12-18T03:22:35;6.45;;;5.00;;
54332;SDS011;40230;41.860;21.940;2022-12-18T03:25:04;5.47;;;4.50;;
54332;SDS011;40230;41.860;21.940;2022-12-18T03:27:32;7.30;;;5.18;;
54332;SDS011;40230;41.860;21.940;2022-12-18T03:30:03;6.70;;;4.75;;
54332;SDS011;40230;41.860;21.940;2022-12-18T03:32:38;5.63;;;4.65;;
54332;SDS011;40230;41.860;21.940;2022-12-18T03:35:05;6.00;;;4.50;;
54332;SDS011;40230;41.860;21.940;2022-12-18T03:37:32;5.25;;;4.22;;
54332;SDS011;40230;41.860;21.940;2022-12-18T03:39:59;5.32;;;4.50;;
54332;SDS011;40230;41.860;21.940;2022-12-18T03:42:29;7.53;;;4.43;;
54332;SDS011;40230;41.860;21.940;2022-12-18T03:45:19;5.53;;;4.47;;
54332;SDS011;40230;41.860;21.940;2022-12-18T03:53:22;6.28;;;4.40;;
54332;SDS011;40230;41.860;21.940;2022-12-18T03:55:51;5.97;;;4.60;;
54332;SDS011;40230;41.860;21.940;2022-12-18T03:58:19;5.85;;;4.03;;
54332;SDS011;40230;41.860;21.940;2022-12-18T04:00:46;6.68;;;5.00;;
54332;SDS011;40230;41.860;21.940;2022-12-18T04:03:13;5.72;;;4.53;;
54332;SDS011;40230;41.860;21.940;2022-12-18T04:05:40;6.28;;;5.15;;
54332;SDS011;40230;41.860;21.940;2022-12-18T04:08:08;7.72;;;5.05;;
54332;SDS011;40230;41.860;21.940;2022-12-18T04:10:35;7.50;;;5.57;;
54332;SDS011;40230;41.860;21.940;2022-12-18T04:13:01;6.25;;;4.65;;
54332;SDS011;40230;41.860;21.940;2022-12-18T04:15:27;7.75;;;5.15;;
54332;SDS011;40230;41.860;21.940;2022-12-18T04:17:53;6.55;;;4.38;;
54332;SDS011;40230;41.860;21.940;2022-12-18T04:20:19;6.35;;;4.90;;
54332;SDS011;40230;41.860;21.940;2022-12-18T04:22:46;10.02;;;5.55;;
54332;SDS011;40230;41.860;21.940;2022-12-18T04:25:12;7.38;;;4.82;;
54332;SDS011;40230;41.860;21.940;2022-12-18T04:27:38;7.50;;;5.75;;
54332;SDS011;40230;41.860;21.940;2022-12-18T04:30:04;7.35;;;6.03;;
54332;SDS011;40230;41.860;21.940;2022-12-18T04:32:31;7.85;;;6.03;;
54332;SDS011;40230;41.860;21.940;2022-12-18T04:34:58;8.77;;;5.68;;
54332;SDS011;40230;41.860;21.940;2022-12-18T04:37:24;8.40;;;5.72;;
54332;SDS011;40230;41.860;21.940;2022-12-18T04:39:50;6.28;;;5.28;;
54332;SDS011;40230;41.860;21.940;2022-12-18T04:42:17;6.25;;;4.97;;
54332;SDS011;40230;41.860;21.940;2022-12-18T04:44:43;10.88;;;7.80;;
54332;SDS011;40230;41.860;21.940;2022-12-18T04:47:09;11.55;;;8.15;;
54332;SDS011;40230;41.860;21.940;2022-12-18T04:49:35;7.60;;;5.13;;
54332;SDS011;40230;41.860;21.940;2022-12-18T04:52:01;7.93;;;5.50;;
54332;SDS011;40230;41.860;21.940;2022-12-18T04:54:27;7.38;;;5.88;;
54332;SDS011;40230;41.860;21.940;2022-12-18T04:56:53;8.02;;;6.63;;
54332;SDS011;40230;41.860;21.940;2022-12-18T04:59:19;6.55;;;5.10;;
54332;SDS011;40230;41.860;21.940;2022-12-18T05:01:45;8.68;;;6.20;;
54332;SDS011;40230;41.860;21.940;2022-12-18T05:04:12;9.68;;;6.95;;
54332;SDS011;40230;41.860;21.940;2022-12-18T05:06:38;9.38;;;6.47;;
54332;SDS011;40230;41.860;21.940;2022-12-18T05:09:04;7.32;;;5.25;;
54332;SDS011;40230;41.860;21.940;2022-12-18T05:11:30;8.57;;;6.13;;
54332;SDS011;40230;41.860;21.940;2022-12-18T05:13:56;9.70;;;7.18;;
54332;SDS011;40230;41.860;21.940;2022-12-18T05:16:22;9.82;;;7.78;;
54332;SDS011;40230;41.860;21.940;2022-12-18T05:18:48;9.18;;;6.50;;
54332;SDS011;40230;41.860;21.940;2022-12-18T05:21:14;11.38;;;7.43;;
54332;SDS011;40230;41.860;21.940;2022-12-18T05:23:40;10.93;;;7.72;;
54332;SDS011;40230;41.860;21.940;2022-12-18T05:26:07;12.68;;;8.55;;
54332;SDS011;40230;41.860;21.940;2022-12-18T05:28:33;11.00;;;8.00;;
54332;SDS011;40230;41.860;21.940;2022-12-18T05:31:01;11.02;;;8.00;;
54332;SDS011;40230;41.860;21.940;2022-12-18T05:33:29;10.75;;;7.28;;
54332;SDS011;40230;41.860;21.940;2022-12-18T05:35:56;11.98;;;8.05;;
54332;SDS011;40230;41.860;21.940;2022-12-18T05:38:23;12.27;;;7.97;;
54332;SDS011;40230;41.860;21.940;2022-12-18T05:40:49;8.48;;;6.97;;
54332;SDS011;40230;41.860;21.940;2022-12-18T05:43:16;11.40;;;8.95;;
54332;SDS011;40230;41.860;21.940;2022-12-18T05:45:43;10.30;;;7.28;;
54332;SDS011;40230;41.860;21.940;2022-12-18T05:48:09;12.40;;;8.70;;
54332;SDS011;40230;41.860;21.940;2022-12-18T05:50:39;11.23;;;8.60;;
54332;SDS011;40230;41.860;21.940;2022-12-18T05:53:06;13.85;;;8.93;;
54332;SDS011;40230;41.860;21.940;2022-12-18T05:55:35;15.13;;;10.57;;
54332;SDS011;40230;41.860;21.940;2022-12-18T05:58:02;13.48;;;9.30;;
54332;SDS011;40230;41.860;21.940;2022-12-18T06:00:29;13.80;;;8.60;;
54332;SDS011;40230;41.860;21.940;2022-12-18T06:02:55;11.88;;;8.20;;
54332;SDS011;40230;41.860;21.940;2022-12-18T06:05:21;14.20;;;10.75;;
54332;SDS011;40230;41.860;21.940;2022-12-18T06:07:47;12.23;;;8.48;;
54332;SDS011;40230;41.860;21.940;2022-12-18T06:10:13;13.10;;;9.43;;
54332;SDS011;40230;41.860;21.940;2022-12-18T06:12:39;10.50;;;8.10;;
54332;SDS011;40230;41.860;21.940;2022-12-18T06:15:05;13.68;;;9.52;;
54332;SDS011;40230;41.860;21.940;2022-12-18T06:17:32;12.77;;;9.02;;
54332;SDS011;40230;41.860;21.940;2022-12-18T06:19:58;13.00;;;9.63;;
54332;SDS011;40230;41.860;21.940;2022-12-18T06:22:25;13.48;;;9.93;;
54332;SDS011;40230;41.860;21.940;2022-12-18T06:24:51;14.60;;;8.90;;
54332;SDS011;40230;41.860;21.940;2022-12-18T06:27:17;15.52;;;11.45;;
54332;SDS011;40230;41.860;21.940;2022-12-18T06:29:43;14.00;;;10.18;;
54332;SDS011;40230;41.860;21.940;2022-12-18T06:32:09;13.85;;;9.15;;
54332;SDS011;40230;41.860;21.940;2022-12-18T06:34:38;13.15;;;10.27;;
54332;SDS011;40230;41.860;21.940;2022-12-18T06:37:04;14.65;;;10.85;;
54332;SDS011;40230;41.860;21.940;2022-12-18T06:39:30;12.98;;;8.90;;
54332;SDS011;40230;41.860;21.940;2022-12-18T06:41:56;12.75;;;9.13;;
54332;SDS011;40230;41.860;21.940;2022-12-18T06:44:22;14.63;;;10.25;;
54332;SDS011;40230;41.860;21.940;2022-12-18T06:46:48;13.13;;;10.02;;
54332;SDS011;40230;41.860;21.940;2022-12-18T06:49:15;13.32;;;9.88;;
54332;SDS011;40230;41.860;21.940;2022-12-18T06:51:41;17.10;;;11.60;;
54332;SDS011;40230;41.860;21.940;2022-12-18T06:54:08;17.20;;;11.55;;
54332;SDS011;40230;41.860;21.940;2022-12-18T06:56:35;19.50;;;12.75;;
54332;SDS011;40230;41.860;21.940;2022-12-18T06:59:01;19.02;;;13.18;;
54332;SDS011;40230;41.860;21.940;2022-12-18T07:01:27;17.13;;;11.60;;
54332;SDS011;40230;41.860;21.940;2022-12-18T07:03:54;20.13;;;14.57;;
54332;SDS011;40230;41.860;21.940;2022-12-18T07:06:21;23.70;;;15.80;;
54332;SDS011;40230;41.860;21.940;2022-12-18T07:08:48;20.95;;;14.40;;
54332;SDS011;40230;41.860;21.940;2022-12-18T07:11:14;16.00;;;11.05;;
54332;SDS011;40230;41.860;21.940;2022-12-18T07:13:40;19.60;;;13.55;;
54332;SDS011;40230;41.860;21.940;2022-12-18T07:18:56;22.92;;;14.90;;
54332;SDS011;40230;41.860;21.940;2022-12-18T07:21:22;18.27;;;12.20;;
54332;SDS011;40230;41.860;21.940;2022-12-18T07:23:50;18.48;;;13.60;;
54332;SDS011;40230;41.860;21.940;2022-12-18T07:26:18;19.35;;;14.05;;
54332;SDS011;40230;41.860;21.940;2022-12-18T07:28:44;18.08;;;12.68;;
54332;SDS011;40230;41.860;21.940;2022-12-18T07:31:11;16.55;;;12.18;;
54332;SDS011;40230;41.860;21.940;2022-12-18T07:33:37;14.80;;;10.48;;
54332;SDS011;40230;41.860;21.940;2022-12-18T07:36:04;13.85;;;10.35;;
54332;SDS011;40230;41.860;21.940;2022-12-18T07:38:31;18.88;;;12.23;;
54332;SDS011;40230;41.860;21.940;2022-12-18T07:41:01;16.73;;;12.50;;
54332;SDS011;40230;41.860;21.940;2022-12-18T07:43:27;21.27;;;13.80;;
54332;SDS011;40230;41.860;21.940;2022-12-18T07:45:53;13.90;;;9.95;;
54332;SDS011;40230;41.860;21.940;2022-12-18T07:48:20;19.83;;;14.32;;
54332;SDS011;40230;41.860;21.940;2022-12-18T07:50:46;16.65;;;12.77;;
54332;SDS011;40230;41.860;21.940;2022-12-18T07:53:12;16.45;;;11.95;;
54332;SDS011;40230;41.860;21.940;2022-12-18T07:55:39;16.33;;;10.85;;
54332;SDS011;40230;41.860;21.940;2022-12-18T07:58:06;17.20;;;13.52;;
54332;SDS011;40230;41.860;21.940;2022-12-18T08:00:32;20.10;;;13.85;;
54332;SDS011;40230;41.860;21.940;2022-12-18T08:02:59;18.02;;;13.27;;
54332;SDS011;40230;41.860;21.940;2022-12-18T08:05:25;17.10;;;12.02;;
54332;SDS011;40230;41.860;21.940;2022-12-18T08:07:51;17.40;;;13.80;;
54332;SDS011;40230;41.860;21.940;2022-12-18T08:10:18;18.77;;;13.75;;
54332;SDS011;40230;41.860;21.940;2022-12-18T08:12:44;14.23;;;11.00;;
54332;SDS011;40230;41.860;21.940;2022-12-18T08:15:10;19.48;;;13.27;;
54332;SDS011;40230;41.860;21.940;2022-12-18T08:17:36;17.88;;;12.13;;
54332;SDS011;40230;41.860;21.940;2022-12-18T08:20:02;22.48;;;15.73;;
54332;SDS011;40230;41.860;21.940;2022-12-18T08:22:28;17.67;;;12.35;;
54332;SDS011;40230;41.860;21.940;2022-12-18T08:24:55;15.80;;;11.98;;
54332;SDS011;40230;41.860;21.940;2022-12-18T08:27:21;16.00;;;9.90;;
54332;SDS011;40230;41.860;21.940;2022-12-18T08:29:47;17.17;;;11.80;;
54332;SDS011;40230;41.860;21.940;2022-12-18T08:32:13;19.15;;;13.73;;
54332;SDS011;40230;41.860;21.940;2022-12-18T08:34:39;17.02;;;13.02;;
54332;SDS011;40230;41.860;21.940;2022-12-18T08:37:05;18.75;;;13.57;;
54332;SDS011;40230;41.860;21.940;2022-12-18T08:39:31;16.98;;;11.18;;
54332;SDS011;40230;41.860;21.940;2022-12-18T08:41:57;20.40;;;13.27;;
54332;SDS011;40230;41.860;21.940;2022-12-18T08:44:42;18.88;;;13.75;;
54332;SDS011;40230;41.860;21.940;2022-12-18T08:47:08;14.82;;;10.68;;
54332;SDS011;40230;41.860;21.940;2022-12-18T08:49:34;14.80;;;10.63;;
54332;SDS011;40230;41.860;21.940;2022-12-18T08:52:00;16.92;;;12.02;;
54332;SDS011;40230;41.860;21.940;2022-12-18T08:54:27;19.45;;;12.43;;
54332;SDS011;40230;41.860;21.940;2022-12-18T08:56:54;16.98;;;12.85;;
54332;SDS011;40230;41.860;21.940;2022-12-18T08:59:20;17.83;;;11.02;;
54332;SDS011;40230;41.860;21.940;2022-12-18T09:01:46;16.38;;;12.10;;
54332;SDS011;40230;41.860;21.940;2022-12-18T09:04:13;15.38;;;9.35;;
54332;SDS011;40230;41.860;21.940;2022-12-18T09:06:39;17.38;;;10.65;;
54332;SDS011;40230;41.860;21.940;2022-12-18T09:09:05;14.68;;;9.25;;
54332;SDS011;40230;41.860;21.940;2022-12-18T09:11:32;21.27;;;13.05;;
54332;SDS011;40230;41.860;21.940;2022-12-18T09:14:01;18.17;;;11.80;;
54332;SDS011;40230;41.860;21.940;2022-12-18T09:16:28;13.98;;;10.32;;
54332;SDS011;40230;41.860;21.940;2022-12-18T09:18:54;21.67;;;14.25;;
54332;SDS011;40230;41.860;21.940;2022-12-18T09:21:24;16.65;;;11.55;;
54332;SDS011;40230;41.860;21.940;2022-12-18T09:23:51;25.65;;;15.25;;
54332;SDS011;40230;41.860;21.940;2022-12-18T09:26:17;19.65;;;14.48;;
54332;SDS011;40230;41.860;21.940;2022-12-18T09:28:43;19.98;;;14.15;;
54332;SDS011;40230;41.860;21.940;2022-12-18T09:31:10;20.70;;;14.50;;
54332;SDS011;40230;41.860;21.940;2022-12-18T09:33:41;18.63;;;11.45;;
54332;SDS011;40230;41.860;21.940;2022-12-18T09:36:08;20.40;;;13.77;;
54332;SDS011;40230;41.860;21.940;2022-12-18T09:38:35;21.50;;;13.90;;
54332;SDS011;40230;41.860;21.940;2022-12-18T09:43:45;20.90;;;13.82;;
54332;SDS011;40230;41.860;21.940;2022-12-18T09:46:23;20.05;;;12.77;;
54332;SDS011;40230;41.860;21.940;2022-12-18T09:48:51;18.20;;;12.68;;
54332;SDS011;40230;41.860;21.940;2022-12-18T09:51:19;18.75;;;12.65;;
54332;SDS011;40230;41.860;21.940;2022-12-18T09:53:52;19.27;;;13.20;;
54332;SDS011;40230;41.860;21.940;2022-12-18T09:56:19;19.60;;;12.27;;
54332;SDS011;40230;41.860;21.940;2022-12-18T10:01:23;18.50;;;13.15;;
54332;SDS011;40230;41.860;21.940;2022-12-18T10:03:49;19.02;;;13.20;;
54332;SDS011;40230;41.860;21.940;2022-12-18T10:06:24;23.27;;;15.88;;
54332;SDS011;40230;41.860;21.940;2022-12-18T10:09:01;21.77;;;16.17;;
54332;SDS011;40230;41.860;21.940;2022-12-18T10:16:27;16.85;;;12.02;;
54332;SDS011;40230;41.860;21.940;2022-12-18T10:21:37;24.35;;;16.33;;
54332;SDS011;40230;41.860;21.940;2022-12-18T10:26:49;18.42;;;12.23;;
54332;SDS011;40230;41.860;21.940;2022-12-18T10:29:17;16.13;;;11.73;;
54332;SDS011;40230;41.860;21.940;2022-12-18T10:31:44;19.35;;;14.32;;
54332;SDS011;40230;41.860;21.940;2022-12-18T10:34:13;18.35;;;13.00;;
54332;SDS011;40230;41.860;21.940;2022-12-18T10:36:39;19.17;;;13.48;;
54332;SDS011;40230;41.860;21.940;2022-12-18T10:39:15;19.52;;;12.90;;
54332;SDS011;40230;41.860;21.940;2022-12-18T10:41:41;21.98;;;14.52;;
54332;SDS011;40230;41.860;21.940;2022-12-18T10:44:12;20.15;;;13.90;;
54332;SDS011;40230;41.860;21.940;2022-12-18T10:46:40;22.70;;;15.68;;
54332;SDS011;40230;41.860;21.940;2022-12-18T10:49:07;16.23;;;12.05;;
54332;SDS011;40230;41.860;21.940;2022-12-18T10:51:43;19.02;;;14.18;;
54332;SDS011;40230;41.860;21.940;2022-12-18T10:54:21;26.75;;;18.23;;
54332;SDS011;40230;41.860;21.940;2022-12-18T10:56:47;20.02;;;13.00;;
54332;SDS011;40230;41.860;21.940;2022-12-18T10:59:15;21.95;;;15.35;;
54332;SDS011;40230;41.860;21.940;2022-12-18T11:04:27;19.90;;;13.82;;
54332;SDS011;40230;41.860;21.940;2022-12-18T11:09:39;25.05;;;17.65;;
54332;SDS011;40230;41.860;21.940;2022-12-18T11:12:15;27.02;;;18.70;;
54332;SDS011;40230;41.860;21.940;2022-12-18T11:17:21;24.25;;;15.38;;
54332;SDS011;40230;41.860;21.940;2022-12-18T11:19:55;25.60;;;17.10;;
54332;SDS011;40230;41.860;21.940;2022-12-18T11:22:28;25.23;;;16.10;;
54332;SDS011;40230;41.860;21.940;2022-12-18T11:24:59;25.17;;;16.10;;
54332;SDS011;40230;41.860;21.940;2022-12-18T11:27:26;22.13;;;14.98;;
54332;SDS011;40230;41.860;21.940;2022-12-18T11:30:06;20.55;;;14.18;;
54332;SDS011;40230;41.860;21.940;2022-12-18T11:32:39;20.75;;;15.02;;
54332;SDS011;40230;41.860;21.940;2022-12-18T11:35:11;24.00;;;15.48;;
54332;SDS011;40230;41.860;21.940;2022-12-18T11:37:40;31.75;;;22.85;;
54332;SDS011;40230;41.860;21.940;2022-12-18T11:40:19;19.08;;;13.63;;
54332;SDS011;40230;41.860;21.940;2022-12-18T11:53:01;24.38;;;16.50;;
54332;SDS011;40230;41.860;21.940;2022-12-18T11:58:24;21.80;;;13.65;;
54332;SDS011;40230;41.860;21.940;2022-12-18T12:00:52;24.33;;;16.98;;
54332;SDS011;40230;41.860;21.940;2022-12-18T12:06:10;23.15;;;15.27;;
54332;SDS011;40230;41.860;21.940;2022-12-18T12:26:11;29.17;;;19.42;;
54332;SDS011;40230;41.860;21.940;2022-12-18T12:28:52;27.63;;;19.30;;
54332;SDS011;40230;41.860;21.940;2022-12-18T12:31:27;25.60;;;17.80;;
54332;SDS011;40230;41.860;21.940;2022-12-18T12:41:43;29.83;;;18.17;;
54332;SDS011;40230;41.860;21.940;2022-12-18T12:44:30;32.75;;;21.25;;
54332;SDS011;40230;41.860;21.940;2022-12-18T12:46:59;28.70;;;18.23;;
54332;SDS011;40230;41.860;21.940;2022-12-18T12:49:27;29.02;;;18.02;;
54332;SDS011;40230;41.860;21.940;2022-12-18T12:52:05;28.25;;;17.83;;
54332;SDS011;40230;41.860;21.940;2022-12-18T12:54:36;29.50;;;19.13;;
54332;SDS011;40230;41.860;21.940;2022-12-18T12:57:08;30.83;;;19.65;;
54332;SDS011;40230;41.860;21.940;2022-12-18T12:59:45;28.30;;;18.13;;
54332;SDS011;40230;41.860;21.940;2022-12-18T13:05:00;26.30;;;18.90;;
54332;SDS011;40230;41.860;21.940;2022-12-18T13:07:41;31.05;;;21.25;;
54332;SDS011;40230;41.860;21.940;2022-12-18T13:12:51;26.52;;;17.50;;
54332;SDS011;40230;41.860;21.940;2022-12-18T13:23:01;28.27;;;18.30;;
54332;SDS011;40230;41.860;21.940;2022-12-18T13:25:44;31.77;;;20.02;;
54332;SDS011;40230;41.860;21.940;2022-12-18T13:38:38;21.98;;;13.32;;
54332;SDS011;40230;41.860;21.940;2022-12-18T13:48:49;30.85;;;20.45;;
54332;SDS011;40230;41.860;21.940;2022-12-18T13:51:16;25.42;;;16.75;;
54332;SDS011;40230;41.860;21.940;2022-12-18T13:53:44;25.85;;;16.80;;
54332;SDS011;40230;41.860;21.940;2022-12-18T14:01:52;27.38;;;19.27;;
54332;SDS011;40230;41.860;21.940;2022-12-18T14:04:23;28.92;;;19.85;;
54332;SDS011;40230;41.860;21.940;2022-12-18T14:06:52;30.20;;;18.65;;
54332;SDS011;40230;41.860;21.940;2022-12-18T14:09:20;31.65;;;19.73;;
54332;SDS011;40230;41.860;21.940;2022-12-18T14:11:49;27.13;;;16.83;;
54332;SDS011;40230;41.860;21.940;2022-12-18T14:14:16;25.98;;;15.32;;
54332;SDS011;40230;41.860;21.940;2022-12-18T14:16:43;26.10;;;16.70;;
54332;SDS011;40230;41.860;21.940;2022-12-18T14:19:12;29.10;;;18.20;;
54332;SDS011;40230;41.860;21.940;2022-12-18T14:21:40;23.95;;;16.02;;
54332;SDS011;40230;41.860;21.940;2022-12-18T14:24:12;25.25;;;16.38;;
54332;SDS011;40230;41.860;21.940;2022-12-18T14:26:39;27.08;;;15.93;;
54332;SDS011;40230;41.860;21.940;2022-12-18T14:34:16;24.13;;;16.23;;
54332;SDS011;40230;41.860;21.940;2022-12-18T14:36:53;25.30;;;15.35;;
54332;SDS011;40230;41.860;21.940;2022-12-18T14:39:21;28.17;;;17.50;;
54332;SDS011;40230;41.860;21.940;2022-12-18T14:41:50;29.40;;;18.83;;
54332;SDS011;40230;41.860;21.940;2022-12-18T14:44:16;34.75;;;20.42;;
54332;SDS011;40230;41.860;21.940;2022-12-18T14:46:44;27.80;;;18.63;;
54332;SDS011;40230;41.860;21.940;2022-12-18T14:51:56;30.00;;;19.35;;
54332;SDS011;40230;41.860;21.940;2022-12-18T14:54:25;25.95;;;17.30;;
54332;SDS011;40230;41.860;21.940;2022-12-18T14:59:37;30.52;;;19.15;;
54332;SDS011;40230;41.860;21.940;2022-12-18T15:04:47;32.92;;;19.63;;
54332;SDS011;40230;41.860;21.940;2022-12-18T15:07:24;27.55;;;16.75;;
54332;SDS011;40230;41.860;21.940;2022-12-18T15:10:01;24.92;;;15.25;;
54332;SDS011;40230;41.860;21.940;2022-12-18T15:14:54;24.95;;;17.02;;
54332;SDS011;40230;41.860;21.940;2022-12-18T15:17:23;26.05;;;18.13;;
54332;SDS011;40230;41.860;21.940;2022-12-18T15:19:50;25.02;;;15.20;;
54332;SDS011;40230;41.860;21.940;2022-12-18T15:22:35;28.38;;;16.63;;
54332;SDS011;40230;41.860;21.940;2022-12-18T15:25:03;28.33;;;18.55;;
54332;SDS011;40230;41.860;21.940;2022-12-18T15:27:30;30.98;;;20.17;;
54332;SDS011;40230;41.860;21.940;2022-12-18T15:32:33;30.60;;;19.48;;
54332;SDS011;40230;41.860;21.940;2022-12-18T15:35:03;29.52;;;19.88;;
54332;SDS011;40230;41.860;21.940;2022-12-18T15:37:29;29.15;;;17.92;;
54332;SDS011;40230;41.860;21.940;2022-12-18T15:39:55;25.77;;;16.75;;
54332;SDS011;40230;41.860;21.940;2022-12-18T15:42:21;31.30;;;20.42;;
54332;SDS011;40230;41.860;21.940;2022-12-18T15:45:08;25.90;;;16.80;;
54332;SDS011;40230;41.860;21.940;2022-12-18T15:47:37;25.73;;;15.98;;
54332;SDS011;40230;41.860;21.940;2022-12-18T15:50:03;28.15;;;17.00;;
54332;SDS011;40230;41.860;21.940;2022-12-18T15:52:31;28.10;;;18.08;;
54332;SDS011;40230;41.860;21.940;2022-12-18T15:55:00;24.65;;;15.30;;
54332;SDS011;40230;41.860;21.940;2022-12-18T15:57:45;27.77;;;18.42;;
54332;SDS011;40230;41.860;21.940;2022-12-18T16:00:11;27.80;;;17.60;;
54332;SDS011;40230;41.860;21.940;2022-12-18T16:02:37;31.70;;;21.05;;
54332;SDS011;40230;41.860;21.940;2022-12-18T16:05:05;28.40;;;18.15;;
54332;SDS011;40230;41.860;21.940;2022-12-18T16:07:35;27.30;;;15.82;;
54332;SDS011;40230;41.860;21.940;2022-12-18T16:10:01;35.10;;;22.67;;
54332;SDS011;40230;41.860;21.940;2022-12-18T16:12:27;29.27;;;17.23;;
54332;SDS011;40230;41.860;21.940;2022-12-18T16:14:53;34.60;;;23.02;;
54332;SDS011;40230;41.860;21.940;2022-12-18T16:17:19;33.97;;;22.67;;
54332;SDS011;40230;41.860;21.940;2022-12-18T16:19:46;33.67;;;21.08;;
54332;SDS011;40230;41.860;21.940;2022-12-18T16:27:23;29.80;;;19.48;;
54332;SDS011;40230;41.860;21.940;2022-12-18T16:29:50;30.02;;;19.38;;
54332;SDS011;40230;41.860;21.940;2022-12-18T16:32:17;29.05;;;18.92;;
54332;SDS011;40230;41.860;21.940;2022-12-18T16:34:43;28.92;;;18.85;;
54332;SDS011;40230;41.860;21.940;2022-12-18T16:37:10;27.98;;;17.80;;
54332;SDS011;40230;41.860;21.940;2022-12-18T16:39:37;24.20;;;16.17;;
54332;SDS011;40230;41.860;21.940;2022-12-18T16:42:14;28.50;;;18.42;;
54332;SDS011;40230;41.860;21.940;2022-12-18T16:44:41;28.20;;;18.15;;
54332;SDS011;40230;41.860;21.940;2022-12-18T16:47:08;30.30;;;19.77;;
54332;SDS011;40230;41.860;21.940;2022-12-18T16:49:34;31.73;;;21.45;;
54332;SDS011;40230;41.860;21.940;2022-12-18T16:52:00;30.08;;;20.15;;
54332;SDS011;40230;41.860;21.940;2022-12-18T16:54:26;26.05;;;17.02;;
54332;SDS011;40230;41.860;21.940;2022-12-18T16:56:54;32.78;;;20.73;;